sensor_id;sensor_type;location;lat;lon;timestamp;P1;durP1;ratioP1;P2;durP2;ratioP2
29302;SDS011;60019;45.556;12.004;2023-03-01T00:05:44;14.73;;;8.05;;
29302;SDS011;60019;45.556;12.004;2023-03-01T00:11:46;11.43;;;8.43;;
29302;SDS011;60019;45.556;12.004;2023-03-01T00:17:48;12.52;;;8.00;;
29302;SDS011;60019;45.556;12.004;2023-03-01T00:23:50;12.05;;;7.93;;
29302;SDS011;60019;45.556;12.004;2023-03-01T00:29:52;14.50;;;7.97;;
29302;SDS011;60019;45.556;12.004;2023-03-01T00:35:54;15.43;;;8.52;;
29302;SDS011;60019;45.556;12.004;2023-03-01T00:41:56;11.05;;;6.85;;
29302;SDS011;60019;45.556;12.004;2023-03-01T00:47:58;10.50;;;7.03;;
29302;SDS011;60019;45.556;12.004;2023-03-01T00:54:00;11.60;;;7.53;;
29302;SDS011;60019;45.556;12.004;2023-03-01T01:00:03;10.93;;;6.57;;
29302;SDS011;60019;45.556;12.004;2023-03-01T01:06:05;11.10;;;7.45;;
29302;SDS011;60019;45.556;12.004;2023-03-01T01:12:10;9.77;;;6.32;;
29302;SDS011;60019;45.556;12.004;2023-03-01T01:18:11;12.02;;;7.10;;
29302;SDS011;60019;45.556;12.004;2023-03-01T01:24:13;10.27;;;6.60;;
29302;SDS011;60019;45.556;12.004;2023-03-01T01:30:16;10.48;;;6.90;;
29302;SDS011;60019;45.556;12.004;2023-03-01T01:36:17;10.25;;;6.40;;
29302;SDS011;60019;45.556;12.004;2023-03-01T01:42:19;12.18;;;6.40;;
29302;SDS011;60019;45.556;12.004;2023-03-01T01:48:22;12.63;;;6.20;;
29302;SDS011;60019;45.556;12.004;2023-03-01T01:54:25;11.38;;;6.57;;
29302;SDS011;60019;45.556;12.004;2023-03-01T02:00:29;10.95;;;6.65;;
29302;SDS011;60019;45.556;12.004;2023-03-01T02:06:32;10.82;;;8.80;;
29302;SDS011;60019;45.556;12.004;2023-03-01T02:12:35;11.30;;;6.90;;
29302;SDS011;60019;45.556;12.004;2023-03-01T02:18:37;11.85;;;7.20;;
29302;SDS011;60019;45.556;12.004;2023-03-01T02:30:51;9.88;;;6.45;;
29302;SDS011;60019;45.556;12.004;2023-03-01T02:37:13;11.68;;;6.88;;
29302;SDS011;60019;45.556;12.004;2023-03-01T02:43:21;8.63;;;6.32;;
29302;SDS011;60019;45.556;12.004;2023-03-01T02:49:25;10.63;;;6.75;;
29302;SDS011;60019;45.556;12.004;2023-03-01T02:55:28;9.38;;;5.85;;
29302;SDS011;60019;45.556;12.004;2023-03-01T03:01:31;9.27;;;5.32;;
29302;SDS011;60019;45.556;12.004;2023-03-01T03:07:42;8.23;;;5.80;;
29302;SDS011;60019;45.556;12.004;2023-03-01T03:13:47;7.45;;;5.30;;
29302;SDS011;60019;45.556;12.004;2023-03-01T03:19:50;9.25;;;5.65;;
29302;SDS011;60019;45.556;12.004;2023-03-01T03:25:51;8.80;;;5.60;;
29302;SDS011;60019;45.556;12.004;2023-03-01T03:31:53;9.20;;;4.95;;
29302;SDS011;60019;45.556;12.004;2023-03-01T03:37:55;6.38;;;4.72;;
29302;SDS011;60019;45.556;12.004;2023-03-01T03:44:03;7.03;;;4.78;;
29302;SDS011;60019;45.556;12.004;2023-03-01T03:50:05;7.97;;;5.45;;
29302;SDS011;60019;45.556;12.004;2023-03-01T03:56:07;7.55;;;5.70;;
29302;SDS011;60019;45.556;12.004;2023-03-01T04:02:09;8.98;;;5.45;;
29302;SDS011;60019;45.556;12.004;2023-03-01T04:08:11;6.90;;;4.93;;
29302;SDS011;60019;45.556;12.004;2023-03-01T04:14:13;8.07;;;5.38;;
29302;SDS011;60019;45.556;12.004;2023-03-01T04:20:16;7.13;;;4.57;;
29302;SDS011;60019;45.556;12.004;2023-03-01T04:26:19;6.90;;;4.55;;
29302;SDS011;60019;45.556;12.004;2023-03-01T04:32:20;6.10;;;4.70;;
29302;SDS011;60019;45.556;12.004;2023-03-01T04:38:22;7.30;;;4.80;;
29302;SDS011;60019;45.556;12.004;2023-03-01T04:44:24;5.95;;;4.43;;
29302;SDS011;60019;45.556;12.004;2023-03-01T04:50:26;8.60;;;4.85;;
29302;SDS011;60019;45.556;12.004;2023-03-01T04:56:28;8.43;;;5.70;;
29302;SDS011;60019;45.556;12.004;2023-03-01T05:02:29;7.38;;;4.75;;
29302;SDS011;60019;45.556;12.004;2023-03-01T05:08:31;8.55;;;5.07;;
29302;SDS011;60019;45.556;12.004;2023-03-01T05:14:34;6.70;;;4.47;;
29302;SDS011;60019;45.556;12.004;2023-03-01T05:20:37;7.03;;;4.45;;
29302;SDS011;60019;45.556;12.004;2023-03-01T05:26:39;13.82;;;5.30;;
29302;SDS011;60019;45.556;12.004;2023-03-01T05:32:41;7.53;;;4.90;;
29302;SDS011;60019;45.556;12.004;2023-03-01T05:38:46;10.00;;;7.13;;
29302;SDS011;60019;45.556;12.004;2023-03-01T05:44:48;11.82;;;7.75;;
29302;SDS011;60019;45.556;12.004;2023-03-01T05:50:50;10.15;;;6.25;;
29302;SDS011;60019;45.556;12.004;2023-03-01T05:56:51;10.95;;;6.40;;
29302;SDS011;60019;45.556;12.004;2023-03-01T06:02:53;9.13;;;6.10;;
29302;SDS011;60019;45.556;12.004;2023-03-01T06:08:55;9.55;;;6.45;;
29302;SDS011;60019;45.556;12.004;2023-03-01T06:14:57;9.05;;;5.88;;
29302;SDS011;60019;45.556;12.004;2023-03-01T06:20:59;9.63;;;5.65;;
29302;SDS011;60019;45.556;12.004;2023-03-01T06:27:00;9.88;;;5.43;;
29302;SDS011;60019;45.556;12.004;2023-03-01T06:33:02;7.57;;;4.85;;
29302;SDS011;60019;45.556;12.004;2023-03-01T06:39:04;5.88;;;3.95;;
29302;SDS011;60019;45.556;12.004;2023-03-01T06:45:06;8.50;;;5.13;;
29302;SDS011;60019;45.556;12.004;2023-03-01T06:51:09;7.25;;;4.75;;
29302;SDS011;60019;45.556;12.004;2023-03-01T06:57:10;6.68;;;3.88;;
29302;SDS011;60019;45.556;12.004;2023-03-01T07:03:12;5.30;;;4.10;;
29302;SDS011;60019;45.556;12.004;2023-03-01T07:09:14;6.25;;;4.10;;
29302;SDS011;60019;45.556;12.004;2023-03-01T07:15:20;6.15;;;4.28;;
29302;SDS011;60019;45.556;12.004;2023-03-01T07:21:22;7.90;;;4.93;;
29302;SDS011;60019;45.556;12.004;2023-03-01T07:27:23;7.40;;;4.82;;
29302;SDS011;60019;45.556;12.004;2023-03-01T07:33:25;7.60;;;4.60;;
29302;SDS011;60019;45.556;12.004;2023-03-01T07:39:27;7.13;;;4.68;;
29302;SDS011;60019;45.556;12.004;2023-03-01T07:45:29;5.75;;;3.83;;
29302;SDS011;60019;45.556;12.004;2023-03-01T07:51:30;11.73;;;4.50;;
29302;SDS011;60019;45.556;12.004;2023-03-01T07:57:32;7.15;;;4.70;;
29302;SDS011;60019;45.556;12.004;2023-03-01T08:03:34;6.75;;;4.47;;
29302;SDS011;60019;45.556;12.004;2023-03-01T08:09:36;8.30;;;4.63;;
29302;SDS011;60019;45.556;12.004;2023-03-01T08:15:38;8.35;;;4.38;;
29302;SDS011;60019;45.556;12.004;2023-03-01T08:21:40;5.68;;;4.07;;
29302;SDS011;60019;45.556;12.004;2023-03-01T08:27:42;7.25;;;4.70;;
29302;SDS011;60019;45.556;12.004;2023-03-01T08:33:43;7.60;;;4.30;;
29302;SDS011;60019;45.556;12.004;2023-03-01T08:39:51;6.18;;;4.20;;
29302;SDS011;60019;45.556;12.004;2023-03-01T08:45:52;5.72;;;3.60;;
29302;SDS011;60019;45.556;12.004;2023-03-01T08:51:54;7.93;;;4.05;;
29302;SDS011;60019;45.556;12.004;2023-03-01T08:57:56;5.90;;;3.78;;
29302;SDS011;60019;45.556;12.004;2023-03-01T09:04:00;6.22;;;3.97;;
29302;SDS011;60019;45.556;12.004;2023-03-01T09:16:54;8.93;;;4.40;;
29302;SDS011;60019;45.556;12.004;2023-03-01T09:22:56;6.85;;;4.25;;
29302;SDS011;60019;45.556;12.004;2023-03-01T09:28:57;6.63;;;3.97;;
29302;SDS011;60019;45.556;12.004;2023-03-01T09:34:59;6.50;;;4.20;;
29302;SDS011;60019;45.556;12.004;2023-03-01T09:47:35;8.57;;;4.22;;
29302;SDS011;60019;45.556;12.004;2023-03-01T09:53:37;7.35;;;3.60;;
29302;SDS011;60019;45.556;12.004;2023-03-01T10:05:47;10.20;;;3.67;;
29302;SDS011;60019;45.556;12.004;2023-03-01T10:17:52;6.20;;;3.53;;
29302;SDS011;60019;45.556;12.004;2023-03-01T10:23:59;10.80;;;3.88;;
29302;SDS011;60019;45.556;12.004;2023-03-01T10:36:27;8.07;;;3.28;;
29302;SDS011;60019;45.556;12.004;2023-03-01T10:42:29;10.32;;;4.43;;
29302;SDS011;60019;45.556;12.004;2023-03-01T10:54:33;7.05;;;3.70;;
29302;SDS011;60019;45.556;12.004;2023-03-01T11:00:45;8.52;;;3.85;;
29302;SDS011;60019;45.556;12.004;2023-03-01T11:06:47;14.35;;;4.90;;
29302;SDS011;60019;45.556;12.004;2023-03-01T11:19:21;13.48;;;4.22;;
29302;SDS011;60019;45.556;12.004;2023-03-01T11:31:24;9.75;;;4.72;;
29302;SDS011;60019;45.556;12.004;2023-03-01T12:01:45;8.90;;;3.72;;
29302;SDS011;60019;45.556;12.004;2023-03-01T12:44:49;16.17;;;6.03;;
29302;SDS011;60019;45.556;12.004;2023-03-01T12:56:59;5.80;;;3.80;;
29302;SDS011;60019;45.556;12.004;2023-03-01T14:09:23;6.50;;;3.92;;
29302;SDS011;60019;45.556;12.004;2023-03-01T14:21:27;8.23;;;4.60;;
29302;SDS011;60019;45.556;12.004;2023-03-01T14:27:35;6.72;;;3.90;;
29302;SDS011;60019;45.556;12.004;2023-03-01T14:33:40;6.43;;;4.97;;
29302;SDS011;60019;45.556;12.004;2023-03-01T14:39:42;8.20;;;4.93;;
29302;SDS011;60019;45.556;12.004;2023-03-01T14:45:46;6.93;;;4.87;;
29302;SDS011;60019;45.556;12.004;2023-03-01T14:52:01;6.85;;;4.80;;
29302;SDS011;60019;45.556;12.004;2023-03-01T14:58:04;7.40;;;4.53;;
29302;SDS011;60019;45.556;12.004;2023-03-01T15:04:08;7.88;;;4.68;;
29302;SDS011;60019;45.556;12.004;2023-03-01T15:10:20;8.98;;;5.40;;
29302;SDS011;60019;45.556;12.004;2023-03-01T15:16:23;6.70;;;4.88;;
29302;SDS011;60019;45.556;12.004;2023-03-01T15:22:25;7.18;;;4.75;;
29302;SDS011;60019;45.556;12.004;2023-03-01T15:28:29;9.05;;;4.72;;
29302;SDS011;60019;45.556;12.004;2023-03-01T15:40:33;8.55;;;4.65;;
29302;SDS011;60019;45.556;12.004;2023-03-01T15:46:38;9.32;;;4.55;;
29302;SDS011;60019;45.556;12.004;2023-03-01T15:52:40;7.22;;;4.70;;
29302;SDS011;60019;45.556;12.004;2023-03-01T15:58:43;5.07;;;4.03;;
29302;SDS011;60019;45.556;12.004;2023-03-01T16:04:45;5.50;;;3.92;;
29302;SDS011;60019;45.556;12.004;2023-03-01T16:10:47;3.63;;;2.97;;
29302;SDS011;60019;45.556;12.004;2023-03-01T16:16:50;4.68;;;3.20;;
29302;SDS011;60019;45.556;12.004;2023-03-01T16:22:52;5.20;;;3.17;;
29302;SDS011;60019;45.556;12.004;2023-03-01T16:28:54;5.80;;;3.30;;
29302;SDS011;60019;45.556;12.004;2023-03-01T16:34:57;4.93;;;3.40;;
29302;SDS011;60019;45.556;12.004;2023-03-01T16:40:58;5.40;;;3.55;;
29302;SDS011;60019;45.556;12.004;2023-03-01T16:47:00;5.47;;;3.45;;
29302;SDS011;60019;45.556;12.004;2023-03-01T16:53:02;8.70;;;3.50;;
29302;SDS011;60019;45.556;12.004;2023-03-01T16:59:04;5.88;;;3.88;;
29302;SDS011;60019;45.556;12.004;2023-03-01T17:05:06;5.80;;;3.33;;
29302;SDS011;60019;45.556;12.004;2023-03-01T17:11:09;5.75;;;3.55;;
29302;SDS011;60019;45.556;12.004;2023-03-01T17:17:11;4.85;;;3.58;;
29302;SDS011;60019;45.556;12.004;2023-03-01T17:23:13;5.22;;;3.00;;
29302;SDS011;60019;45.556;12.004;2023-03-01T17:29:15;5.78;;;3.75;;
29302;SDS011;60019;45.556;12.004;2023-03-01T17:35:18;6.57;;;3.40;;
29302;SDS011;60019;45.556;12.004;2023-03-01T17:41:20;5.68;;;3.10;;
29302;SDS011;60019;45.556;12.004;2023-03-01T17:47:24;6.22;;;3.13;;
29302;SDS011;60019;45.556;12.004;2023-03-01T17:53:26;3.78;;;3.13;;
29302;SDS011;60019;45.556;12.004;2023-03-01T17:59:28;5.75;;;3.40;;
29302;SDS011;60019;45.556;12.004;2023-03-01T18:05:33;4.03;;;3.05;;
29302;SDS011;60019;45.556;12.004;2023-03-01T18:11:35;3.60;;;2.53;;
29302;SDS011;60019;45.556;12.004;2023-03-01T18:17:37;5.28;;;2.90;;
29302;SDS011;60019;45.556;12.004;2023-03-01T18:23:39;3.47;;;2.85;;
29302;SDS011;60019;45.556;12.004;2023-03-01T18:29:41;2.85;;;2.50;;
29302;SDS011;60019;45.556;12.004;2023-03-01T18:41:44;4.15;;;2.38;;
29302;SDS011;60019;45.556;12.004;2023-03-01T18:47:46;3.35;;;2.42;;
29302;SDS011;60019;45.556;12.004;2023-03-01T18:53:49;3.13;;;2.35;;
29302;SDS011;60019;45.556;12.004;2023-03-01T18:59:51;3.80;;;2.40;;
29302;SDS011;60019;45.556;12.004;2023-03-01T19:05:53;3.10;;;2.45;;
29302;SDS011;60019;45.556;12.004;2023-03-01T19:18:49;3.95;;;2.80;;
29302;SDS011;60019;45.556;12.004;2023-03-01T19:24:51;3.45;;;2.88;;
29302;SDS011;60019;45.556;12.004;2023-03-01T19:31:13;3.03;;;2.22;;
29302;SDS011;60019;45.556;12.004;2023-03-01T19:37:15;3.50;;;2.47;;
29302;SDS011;60019;45.556;12.004;2023-03-01T19:43:17;4.72;;;3.15;;
29302;SDS011;60019;45.556;12.004;2023-03-01T19:49:19;8.43;;;5.45;;
29302;SDS011;60019;45.556;12.004;2023-03-01T20:07:24;2.95;;;2.38;;
29302;SDS011;60019;45.556;12.004;2023-03-01T21:31:52;10.88;;;5.35;;
29302;SDS011;60019;45.556;12.004;2023-03-01T21:37:54;7.63;;;4.60;;
29302;SDS011;60019;45.556;12.004;2023-03-01T21:43:57;8.13;;;3.78;;
29302;SDS011;60019;45.556;12.004;2023-03-01T21:50:02;10.07;;;7.03;;
29302;SDS011;60019;45.556;12.004;2023-03-01T21:56:05;7.68;;;5.40;;
29302;SDS011;60019;45.556;12.004;2023-03-01T22:02:09;8.18;;;4.85;;
29302;SDS011;60019;45.556;12.004;2023-03-01T22:08:13;5.43;;;3.83;;
29302;SDS011;60019;45.556;12.004;2023-03-01T22:14:19;6.60;;;4.57;;
29302;SDS011;60019;45.556;12.004;2023-03-01T22:20:21;8.13;;;4.97;;
29302;SDS011;60019;45.556;12.004;2023-03-01T22:26:24;11.30;;;5.50;;
29302;SDS011;60019;45.556;12.004;2023-03-01T22:32:26;25.08;;;10.50;;
29302;SDS011;60019;45.556;12.004;2023-03-01T22:38:28;20.13;;;8.98;;
29302;SDS011;60019;45.556;12.004;2023-03-01T22:44:29;12.80;;;6.60;;
29302;SDS011;60019;45.556;12.004;2023-03-01T22:50:31;14.32;;;6.47;;
29302;SDS011;60019;45.556;12.004;2023-03-01T22:56:33;7.55;;;4.88;;
29302;SDS011;60019;45.556;12.004;2023-03-01T23:02:36;7.85;;;4.05;;
29302;SDS011;60019;45.556;12.004;2023-03-01T23:08:40;6.38;;;3.60;;
29302;SDS011;60019;45.556;12.004;2023-03-01T23:14:41;6.82;;;4.00;;
29302;SDS011;60019;45.556;12.004;2023-03-01T23:20:43;7.00;;;3.35;;
29302;SDS011;60019;45.556;12.004;2023-03-01T23:26:45;4.82;;;3.00;;
29302;SDS011;60019;45.556;12.004;2023-03-01T23:32:52;7.75;;;3.30;;
29302;SDS011;60019;45.556;12.004;2023-03-01T23:38:55;5.88;;;3.25;;
29302;SDS011;60019;45.556;12.004;2023-03-01T23:44:57;5.20;;;3.15;;
29302;SDS011;60019;45.556;12.004;2023-03-01T23:51:03;5.45;;;3.00;;
29302;SDS011;60019;45.556;12.004;2023-03-01T23:57:05;4.65;;;2.95;;
